createdAt,value
2022-08-30T00:00:03.231Z,18.57
2022-08-30T00:02:53.254Z,18.51
2022-08-30T00:05:43.081Z,18.49
2022-08-30T00:08:31.665Z,18.47
2022-08-30T00:11:22.485Z,18.42
2022-08-30T00:14:11.048Z,18.37
2022-08-30T00:16:59.557Z,18.39
2022-08-30T00:19:49.512Z,18.33
2022-08-30T00:22:38.198Z,18.37
2022-08-30T00:25:27.206Z,18.32
2022-08-30T00:28:16.882Z,18.28
2022-08-30T00:31:06.345Z,18.31
2022-08-30T00:33:54.914Z,18.35
2022-08-30T00:36:45.552Z,18.34
2022-08-30T00:39:34.092Z,18.36
2022-08-30T00:42:22.988Z,18.36
2022-08-30T00:45:13.595Z,18.16
2022-08-30T00:48:02.271Z,18.33
2022-08-30T00:50:54.356Z,18.35
2022-08-30T00:53:47.941Z,18.37
2022-08-30T00:56:36.591Z,18.30
2022-08-30T00:59:25.755Z,18.30
2022-08-30T01:02:14.562Z,18.27
2022-08-30T01:05:04.082Z,18.12
2022-08-30T01:07:52.760Z,17.91
2022-08-30T01:10:43.767Z,18.02
2022-08-30T01:13:32.687Z,18.08
2022-08-30T01:16:22.433Z,18.09
2022-08-30T01:19:17.803Z,18.11
2022-08-30T01:22:17.236Z,18.13
2022-08-30T01:25:08.857Z,17.92
2022-08-30T01:28:01.747Z,18.11
2022-08-30T01:30:50.646Z,18.10
2022-08-30T01:33:40.186Z,18.09
2022-08-30T01:36:28.999Z,18.15
2022-08-30T01:39:18.911Z,18.09
2022-08-30T01:42:08.917Z,18.07
2022-08-30T01:44:57.479Z,18.08
2022-08-30T01:47:46.007Z,17.87
2022-08-30T01:50:34.593Z,17.97
2022-08-30T01:53:24.352Z,17.84
2022-08-30T01:56:13.418Z,17.82
2022-08-30T01:59:03.450Z,17.87
2022-08-30T02:01:52.274Z,17.78
2022-08-30T02:04:40.798Z,17.73
2022-08-30T02:07:29.365Z,17.75
2022-08-30T02:10:17.928Z,17.67
2022-08-30T02:13:06.469Z,17.69
2022-08-30T02:16:01.852Z,17.67
2022-08-30T02:18:50.702Z,17.65
2022-08-30T02:21:39.165Z,17.60
2022-08-30T02:24:27.774Z,17.55
2022-08-30T02:27:16.360Z,17.50
2022-08-30T02:30:06.292Z,17.46
2022-08-30T02:32:56.149Z,17.40
2022-08-30T02:35:44.674Z,17.26
2022-08-30T02:38:33.257Z,17.29
2022-08-30T02:41:23.518Z,17.18
2022-08-30T02:44:12.170Z,17.28
2022-08-30T02:47:00.682Z,17.26
2022-08-30T02:49:50.580Z,17.19
2022-08-30T02:52:39.171Z,17.18
2022-08-30T02:55:28.732Z,17.18
2022-08-30T02:58:17.508Z,17.19
2022-08-30T03:01:06.772Z,17.19
2022-08-30T03:03:55.371Z,17.19
2022-08-30T03:06:45.339Z,17.11
2022-08-30T03:09:34.018Z,16.96
2022-08-30T03:12:22.521Z,16.77
2022-08-30T03:15:13.573Z,16.73
2022-08-30T03:18:02.543Z,16.93
2022-08-30T03:20:54.473Z,16.74
2022-08-30T03:23:45.177Z,16.88
2022-08-30T03:26:33.723Z,16.72
2022-08-30T03:29:22.895Z,16.63
2022-08-30T03:32:11.502Z,16.68
2022-08-30T03:35:00.649Z,16.71
2022-08-30T03:37:49.241Z,16.78
2022-08-30T03:40:46.121Z,16.77
2022-08-30T03:43:35.274Z,16.89
2022-08-30T03:46:28.726Z,16.86
2022-08-30T03:49:17.535Z,16.78
2022-08-30T03:52:06.399Z,16.67
2022-08-30T03:54:54.930Z,16.75
2022-08-30T03:57:44.844Z,16.67
2022-08-30T04:00:33.486Z,16.69
2022-08-30T04:03:25.775Z,16.52
2022-08-30T04:06:14.338Z,16.52
2022-08-30T04:09:02.894Z,16.48
2022-08-30T04:11:51.712Z,16.40
2022-08-30T04:14:41.648Z,16.43
2022-08-30T04:17:30.330Z,16.51
2022-08-30T04:20:18.954Z,16.37
2022-08-30T04:23:08.060Z,16.33
2022-08-30T04:25:57.109Z,16.38
2022-08-30T04:28:45.575Z,16.43
2022-08-30T04:31:36.106Z,16.25
2022-08-30T04:34:24.623Z,16.19
2022-08-30T04:37:13.341Z,16.25
2022-08-30T04:40:01.966Z,16.15
2022-08-30T04:42:54.053Z,16.07
2022-08-30T04:45:43.150Z,15.90
2022-08-30T04:48:33.131Z,16.10
2022-08-30T04:51:21.741Z,16.23
2022-08-30T04:54:10.313Z,16.40
2022-08-30T04:56:58.838Z,16.52
2022-08-30T04:59:47.328Z,16.62
2022-08-30T05:02:35.942Z,16.79
2022-08-30T05:05:41.651Z,16.94
2022-08-30T05:08:30.212Z,17.03
2022-08-30T05:11:18.965Z,17.08
2022-08-30T05:14:07.536Z,17.24
2022-08-30T05:16:56.174Z,17.27
2022-08-30T05:19:44.849Z,17.26
2022-08-30T05:22:36.944Z,17.21
2022-08-30T05:25:27.018Z,17.26
2022-08-30T05:28:15.760Z,17.35
2022-08-30T05:31:05.026Z,17.42
2022-08-30T05:34:03.301Z,17.35
2022-08-30T05:36:53.161Z,17.59
2022-08-30T05:39:50.778Z,17.56
2022-08-30T05:42:41.593Z,17.54
2022-08-30T05:45:30.192Z,17.51
2022-08-30T05:48:18.703Z,17.57
2022-08-30T05:51:09.615Z,17.59
2022-08-30T05:54:01.181Z,17.64
2022-08-30T05:56:53.828Z,17.67
2022-08-30T05:59:42.381Z,17.39
2022-08-30T06:02:30.893Z,17.76
2022-08-30T06:05:19.486Z,17.91
2022-08-30T06:08:07.975Z,18.11
2022-08-30T06:10:56.551Z,18.39
2022-08-30T06:13:47.005Z,18.52
2022-08-30T06:16:38.707Z,18.71
2022-08-30T06:19:27.220Z,18.86
2022-08-30T06:22:15.780Z,19.00
2022-08-30T06:25:04.926Z,19.30
2022-08-30T06:27:56.461Z,19.53
2022-08-30T06:30:47.377Z,19.82
2022-08-30T06:33:36.236Z,20.05
2022-08-30T06:36:26.173Z,20.07
2022-08-30T06:39:14.746Z,20.00
2022-08-30T06:42:03.266Z,20.34
2022-08-30T06:44:51.973Z,20.59
2022-08-30T06:47:41.898Z,20.82
2022-08-30T06:50:33.401Z,21.00
2022-08-30T06:53:22.604Z,21.30
2022-08-30T06:56:16.488Z,21.37
2022-08-30T06:59:05.597Z,21.48
2022-08-30T07:01:54.277Z,21.29
2022-08-30T07:04:44.245Z,21.39
2022-08-30T07:07:32.785Z,21.34
2022-08-30T07:10:21.720Z,21.51
2022-08-30T07:13:10.857Z,21.65
2022-08-30T07:15:59.495Z,21.77
2022-08-30T07:18:55.654Z,22.06
2022-08-30T07:21:45.596Z,22.44
2022-08-30T07:24:34.146Z,22.71
2022-08-30T07:27:22.635Z,22.90
2022-08-30T07:30:12.182Z,22.86
2022-08-30T07:33:00.714Z,22.92
2022-08-30T07:35:49.271Z,23.22
2022-08-30T07:38:39.352Z,23.52
2022-08-30T07:41:29.428Z,23.50
2022-08-30T07:44:18.196Z,23.90
2022-08-30T07:47:06.835Z,24.04
2022-08-30T07:49:55.412Z,24.30
2022-08-30T07:52:44.331Z,24.46
2022-08-30T07:55:34.219Z,24.75
2022-08-30T07:58:22.796Z,24.76
2022-08-30T08:01:13.218Z,24.36
2022-08-30T08:04:01.844Z,24.31
2022-08-30T08:06:50.598Z,24.23
2022-08-30T08:09:39.578Z,24.14
2022-08-30T08:12:29.551Z,24.15
2022-08-30T08:15:18.083Z,24.11
2022-08-30T08:18:07.077Z,24.18
2022-08-30T08:20:56.952Z,24.08
2022-08-30T08:23:46.078Z,24.54
2022-08-30T08:26:35.941Z,25.07
2022-08-30T08:29:26.939Z,25.33
2022-08-30T08:32:15.530Z,25.86
2022-08-30T08:35:04.414Z,26.21
2022-08-30T08:37:53.389Z,26.45
2022-08-30T08:40:48.695Z,26.63
2022-08-30T08:43:38.144Z,26.75
2022-08-30T08:46:31.587Z,26.94
2022-08-30T08:49:21.362Z,27.26
2022-08-30T08:52:30.891Z,27.35
2022-08-30T08:55:22.211Z,27.65
2022-08-30T08:58:18.694Z,27.49
2022-08-30T09:01:09.537Z,27.82
2022-08-30T09:04:00.958Z,28.09
2022-08-30T09:06:53.785Z,28.24
2022-08-30T09:09:43.567Z,27.91
2022-08-30T09:12:32.335Z,27.73
2022-08-30T09:15:26.503Z,27.67
2022-08-30T09:18:19.532Z,27.68
2022-08-30T09:21:10.364Z,27.99
2022-08-30T09:24:01.291Z,28.24
2022-08-30T09:26:50.402Z,28.32
2022-08-30T09:29:51.250Z,28.22
2022-08-30T09:32:41.571Z,27.82
2022-08-30T09:35:36.845Z,28.08
2022-08-30T09:38:30.663Z,28.13
2022-08-30T09:41:31.956Z,28.29
2022-08-30T09:44:22.171Z,28.66
2022-08-30T09:47:24.063Z,28.87
2022-08-30T09:50:14.720Z,28.94
2022-08-30T09:53:10.432Z,29.05
2022-08-30T09:56:06.503Z,29.02
2022-08-30T09:59:10.560Z,28.90
2022-08-30T10:02:03.180Z,28.80
2022-08-30T10:04:59.321Z,28.66
2022-08-30T10:07:53.594Z,28.66
2022-08-30T10:10:50.086Z,28.78
2022-08-30T10:13:56.369Z,28.94
2022-08-30T10:16:51.131Z,29.12
2022-08-30T10:19:49.352Z,29.12
2022-08-30T10:22:41.855Z,29.27
2022-08-30T10:25:34.472Z,28.97
2022-08-30T10:28:30.024Z,29.13
2022-08-30T10:31:27.150Z,28.98
2022-08-30T10:34:19.192Z,28.85
2022-08-30T10:37:11.184Z,29.17
2022-08-30T10:40:22.995Z,29.33
2022-08-30T10:43:21.844Z,29.25
2022-08-30T10:46:15.084Z,29.57
2022-08-30T10:49:10.107Z,29.43
2022-08-30T10:52:04.765Z,29.21
2022-08-30T10:54:56.802Z,29.25
2022-08-30T10:57:46.380Z,29.35
2022-08-30T11:00:42.202Z,29.57
2022-08-30T11:03:59.365Z,30.00
2022-08-30T11:06:56.625Z,29.89
2022-08-30T11:10:11.804Z,29.96
2022-08-30T11:13:02.814Z,30.03
2022-08-30T11:15:57.822Z,30.07
2022-08-30T11:18:51.086Z,30.01
2022-08-30T11:21:42.436Z,29.84
2022-08-30T11:25:10.237Z,29.85
2022-08-30T11:27:59.071Z,29.83
2022-08-30T11:30:52.458Z,29.85
2022-08-30T11:33:47.102Z,29.84
2022-08-30T11:37:09.881Z,29.95
2022-08-30T11:40:03.962Z,29.83
2022-08-30T11:42:54.322Z,29.17
2022-08-30T11:45:55.500Z,29.49
2022-08-30T11:48:54.412Z,29.10
2022-08-30T11:52:23.808Z,29.35
2022-08-30T11:55:46.373Z,29.69
2022-08-30T11:58:44.767Z,29.66
2022-08-30T12:01:56.391Z,29.36
2022-08-30T12:04:46.851Z,29.53
2022-08-30T12:07:58.930Z,29.49
2022-08-30T12:10:51.233Z,29.42
2022-08-30T12:13:54.247Z,29.42
2022-08-30T12:16:59.520Z,29.88
2022-08-30T12:19:50.558Z,30.03
2022-08-30T12:22:40.512Z,30.33
2022-08-30T12:25:31.880Z,30.30
2022-08-30T12:28:25.917Z,30.52
2022-08-30T12:38:32.865Z,30.33
2022-08-30T12:41:22.618Z,30.25
2022-08-30T12:44:16.518Z,30.49
2022-08-30T12:47:06.802Z,30.37
2022-08-30T12:49:56.035Z,30.66
2022-08-30T12:52:46.095Z,30.56
2022-08-30T12:55:37.173Z,30.83
2022-08-30T12:58:42.503Z,30.91
2022-08-30T13:01:35.607Z,30.96
2022-08-30T13:04:28.905Z,31.04
2022-08-30T13:07:33.238Z,31.06
2022-08-30T13:10:21.804Z,31.05
2022-08-30T13:13:10.398Z,30.98
2022-08-30T13:16:09.025Z,30.92
2022-08-30T13:19:19.371Z,30.75
2022-08-30T13:22:08.518Z,30.66
2022-08-30T13:24:57.635Z,30.84
2022-08-30T13:27:46.278Z,31.00
2022-08-30T13:30:37.048Z,30.86
2022-08-30T13:33:25.668Z,31.08
2022-08-30T13:36:15.938Z,30.79
2022-08-30T13:39:06.047Z,31.11
2022-08-30T13:41:54.996Z,30.96
2022-08-30T13:45:03.727Z,31.11
2022-08-30T13:47:52.494Z,30.83
2022-08-30T13:50:41.403Z,30.66
2022-08-30T13:56:41.165Z,30.96
2022-08-30T13:59:33.205Z,31.09
2022-08-30T14:02:21.873Z,31.01
2022-08-30T14:05:20.520Z,31.11
2022-08-30T14:11:31.562Z,31.00
2022-08-30T14:14:32.459Z,31.10
2022-08-30T14:17:30.854Z,31.04
2022-08-30T14:20:20.521Z,31.04
2022-08-30T14:23:10.392Z,30.92
2022-08-30T14:26:00.127Z,30.85
2022-08-30T14:28:51.776Z,30.80
2022-08-30T14:31:41.148Z,30.69
2022-08-30T14:34:30.163Z,30.72
2022-08-30T14:37:21.475Z,30.78
2022-08-30T14:40:10.883Z,30.55
2022-08-30T14:42:59.496Z,30.65
2022-08-30T14:45:49.596Z,30.77
2022-08-30T14:48:39.872Z,30.82
2022-08-30T14:51:29.808Z,30.82
2022-08-30T14:54:20.892Z,30.85
2022-08-30T14:57:09.392Z,30.76
2022-08-30T14:59:57.918Z,30.71
2022-08-30T15:02:47.792Z,30.58
2022-08-30T15:05:36.867Z,30.61
2022-08-30T15:08:25.489Z,30.49
2022-08-30T15:11:15.460Z,30.43
2022-08-30T15:14:03.993Z,30.47
2022-08-30T15:16:54.662Z,30.40
2022-08-30T15:19:44.676Z,30.39
2022-08-30T15:22:33.296Z,30.44
2022-08-30T15:25:23.207Z,30.40
2022-08-30T15:28:11.972Z,30.36
2022-08-30T15:31:03.025Z,30.28
2022-08-30T15:33:54.926Z,30.17
2022-08-30T15:36:47.419Z,30.10
2022-08-30T15:39:36.815Z,30.02
2022-08-30T15:42:25.466Z,30.16
2022-08-30T15:45:14.077Z,30.22
2022-08-30T15:48:06.593Z,30.08
2022-08-30T15:50:58.205Z,30.00
2022-08-30T15:53:48.268Z,29.96
2022-08-30T15:56:37.061Z,29.91
2022-08-30T15:59:25.663Z,29.77
2022-08-30T16:02:14.219Z,29.75
2022-08-30T16:05:05.826Z,29.68
2022-08-30T16:07:54.381Z,29.66
2022-08-30T16:10:44.294Z,29.63
2022-08-30T16:13:36.545Z,29.52
2022-08-30T16:16:25.336Z,29.53
2022-08-30T16:19:14.090Z,29.48
2022-08-30T16:22:02.667Z,29.33
2022-08-30T16:24:51.449Z,29.45
2022-08-30T16:27:43.027Z,29.40
2022-08-30T16:30:31.895Z,29.34
2022-08-30T16:33:20.618Z,29.07
2022-08-30T16:36:10.901Z,29.12
2022-08-30T16:39:00.191Z,29.12
2022-08-30T16:41:49.085Z,28.94
2022-08-30T16:44:40.216Z,28.82
2022-08-30T16:47:29.241Z,28.78
2022-08-30T16:50:21.408Z,28.82
2022-08-30T16:53:10.744Z,28.75
2022-08-30T16:55:59.326Z,28.83
2022-08-30T16:58:49.214Z,28.71
2022-08-30T17:01:41.101Z,28.58
2022-08-30T17:04:29.777Z,28.55
2022-08-30T17:07:22.342Z,28.47
2022-08-30T17:10:11.319Z,28.39
2022-08-30T17:13:02.225Z,28.36
2022-08-30T17:15:51.107Z,28.04
2022-08-30T17:18:41.192Z,27.97
2022-08-30T17:21:31.072Z,27.56
2022-08-30T17:24:20.491Z,27.69
2022-08-30T17:27:09.168Z,27.98
2022-08-30T17:29:57.703Z,27.94
2022-08-30T17:32:46.396Z,27.84
2022-08-30T17:35:39.337Z,27.80
2022-08-30T17:38:27.916Z,27.74
2022-08-30T17:41:16.468Z,27.66
2022-08-30T17:44:05.334Z,27.59
2022-08-30T17:46:54.931Z,27.28
2022-08-30T17:49:43.568Z,27.47
2022-08-30T17:52:33.923Z,27.42
2022-08-30T17:55:22.523Z,27.31
2022-08-30T17:58:11.125Z,27.10
2022-08-30T18:01:11.780Z,27.18
2022-08-30T18:04:01.892Z,27.04
2022-08-30T18:06:51.458Z,26.93
2022-08-30T18:09:42.125Z,26.81
2022-08-30T18:12:31.284Z,26.05
2022-08-30T18:15:22.515Z,26.73
2022-08-30T18:18:11.611Z,26.54
2022-08-30T18:21:01.341Z,26.38
2022-08-30T18:23:50.802Z,25.70
2022-08-30T18:26:43.086Z,26.42
2022-08-30T18:29:32.093Z,26.37
2022-08-30T18:32:20.829Z,26.33
2022-08-30T18:35:10.866Z,26.18
2022-08-30T18:37:59.458Z,26.06
2022-08-30T18:40:49.515Z,25.96
2022-08-30T18:43:39.604Z,25.95
2022-08-30T18:46:28.188Z,25.92
2022-08-30T18:49:16.946Z,25.84
2022-08-30T18:52:07.437Z,25.83
2022-08-30T18:54:56.091Z,25.78
2022-08-30T18:57:48.240Z,25.67
2022-08-30T19:00:38.193Z,25.47
2022-08-30T19:03:26.757Z,25.40
2022-08-30T19:06:22.294Z,25.30
2022-08-30T19:09:11.805Z,25.26
2022-08-30T19:12:00.410Z,25.13
2022-08-30T19:14:49.028Z,25.06
2022-08-30T19:17:39.125Z,25.03
2022-08-30T19:20:27.837Z,24.92
2022-08-30T19:23:16.433Z,24.73
2022-08-30T19:26:05.881Z,24.57
2022-08-30T19:28:54.479Z,24.66
2022-08-30T19:31:43.672Z,23.92
2022-08-30T19:34:33.996Z,24.59
2022-08-30T19:37:22.603Z,24.54
2022-08-30T19:40:14.995Z,24.46
2022-08-30T19:43:05.148Z,24.42
2022-08-30T19:45:55.509Z,24.38
2022-08-30T19:48:44.113Z,24.29
2022-08-30T19:51:34.085Z,24.23
2022-08-30T19:54:24.105Z,24.24
2022-08-30T19:57:12.868Z,24.22
2022-08-30T20:00:03.438Z,24.02
2022-08-30T20:02:52.177Z,24.13
2022-08-30T20:05:40.782Z,24.08
2022-08-30T20:08:30.762Z,24.01
2022-08-30T20:11:21.323Z,23.93
2022-08-30T20:14:13.631Z,23.92
2022-08-30T20:17:02.599Z,23.86
2022-08-30T20:19:51.193Z,23.83
2022-08-30T20:22:40.564Z,23.76
2022-08-30T20:25:40.582Z,23.66
2022-08-30T20:28:29.216Z,23.68
2022-08-30T20:31:17.758Z,23.02
2022-08-30T20:34:06.339Z,23.57
2022-08-30T20:36:55.402Z,23.50
2022-08-30T20:39:44.143Z,23.45
2022-08-30T20:42:34.015Z,23.36
2022-08-30T20:45:22.758Z,23.33
2022-08-30T20:48:13.463Z,23.30
2022-08-30T20:51:03.789Z,23.31
2022-08-30T20:53:53.359Z,23.24
2022-08-30T20:56:42.093Z,23.30
2022-08-30T20:59:32.366Z,23.29
2022-08-30T21:02:20.956Z,23.28
2022-08-30T21:05:10.904Z,23.22
2022-08-30T21:07:59.403Z,23.24
2022-08-30T21:10:49.212Z,23.14
2022-08-30T21:13:38.007Z,23.09
2022-08-30T21:16:28.566Z,22.98
2022-08-30T21:19:18.092Z,22.96
2022-08-30T21:22:06.672Z,22.91
2022-08-30T21:24:55.193Z,22.80
2022-08-30T21:27:44.010Z,22.73
2022-08-30T21:30:32.621Z,22.76
2022-08-30T21:33:22.560Z,22.70
2022-08-30T21:36:29.604Z,22.63
2022-08-30T21:39:20.920Z,22.66
2022-08-30T21:42:11.576Z,22.59
2022-08-30T21:45:00.260Z,22.55
2022-08-30T21:47:48.806Z,22.50
2022-08-30T21:50:41.295Z,22.47
2022-08-30T21:53:30.319Z,22.49
2022-08-30T21:56:21.976Z,22.38
2022-08-30T21:59:11.303Z,22.36
2022-08-30T22:02:00.782Z,22.29
2022-08-30T22:04:49.532Z,22.26
2022-08-30T22:07:39.752Z,22.17
2022-08-30T22:10:32.878Z,22.18
2022-08-30T22:13:21.888Z,22.15
2022-08-30T22:16:10.784Z,21.98
2022-08-30T22:18:59.624Z,22.12
2022-08-30T22:21:48.320Z,22.04
2022-08-30T22:24:39.441Z,22.13
2022-08-30T22:27:28.003Z,22.16
2022-08-30T22:30:17.647Z,22.18
2022-08-30T22:33:06.967Z,22.24
2022-08-30T22:35:55.739Z,22.23
2022-08-30T22:38:44.467Z,22.24
2022-08-30T22:41:35.222Z,22.27
2022-08-30T22:44:23.767Z,22.23
2022-08-30T22:47:12.309Z,22.23
2022-08-30T22:50:00.867Z,22.29
2022-08-30T22:52:49.725Z,22.37
2022-08-30T22:55:41.003Z,22.49
2022-08-30T22:58:30.943Z,22.62
2022-08-30T23:01:22.400Z,22.65
2022-08-30T23:04:11.844Z,22.60
2022-08-30T23:07:00.443Z,22.53
2022-08-30T23:09:48.945Z,22.94
2022-08-30T23:12:37.908Z,23.12
2022-08-30T23:15:29.048Z,22.76
2022-08-30T23:18:17.628Z,22.73
2022-08-30T23:21:07.452Z,22.43
2022-08-30T23:24:17.761Z,22.04
2022-08-30T23:27:23.871Z,21.89
2022-08-30T23:30:31.060Z,21.69
2022-08-30T23:33:38.729Z,21.53
2022-08-30T23:36:44.850Z,21.49
2022-08-30T23:39:50.669Z,21.42
2022-08-30T23:42:56.897Z,21.39
2022-08-30T23:46:03.184Z,21.33
2022-08-30T23:49:10.464Z,21.29
2022-08-30T23:52:16.469Z,21.22
2022-08-30T23:55:23.669Z,21.15
2022-08-30T23:58:29.889Z,21.12
